Scio, Michigan
Current Conditions -  °F | °C
As of 11:53 AM on Friday 28 Nov 2014 (Local Time) from KARB Reporting Station
Few Clouds Few Clouds  
Wind Chill: 16°   Ceiling: Unl
Heat Index: 25°   Visibility: 10mi
Dew Point: 14°   Wind: 9mph
Humidity: 63%   Direction: 190°S
Pressure: 30.27"   Gusts: NA
Location:  42.3528°N, 83.8974°W
Report Text: KARB 281653Z 19008KT 10SM FEW100 M04/M10 A3027 RMK AO2 SLP264 T10391100
Loading
Personal Weather Stations






























Interactive Weather Map New forecast layout! Learn more

10-Day Weather Forecast

Advertisements
Track Severe Weather on mobile